Time,TemperatureF,DewpointF,PressureIn,WindDirection,WindDirectionDegrees,WindSpeedMPH,WindSpeedGustMPH,Humidity,HourlyPrecipIn,Conditions,Clouds,dailyrainin,SoftwareType,DateUTC
2013-06-01 00:01:00,63.4,61.0,30.03,WSW,253,8.0,10.0,92,0.00,,,0.00,WeatherCatV1.14B232,2013-06-01 04:01:00,
2013-06-01 00:06:00,63.4,61.0,30.03,West,260,4.0,7.0,92,0.00,,,0.00,WeatherCatV1.14B232,2013-06-01 04:06:00,
2013-06-01 00:11:00,63.2,60.8,30.03,WSW,241,6.0,9.0,92,0.00,,,0.00,WeatherCatV1.14B232,2013-06-01 04:11:00,
2013-06-01 00:16:00,63.2,60.8,30.03,West,262,4.0,9.0,92,0.00,,,0.00,WeatherCatV1.14B232,2013-06-01 04:16:00,
2013-06-01 00:21:00,63.1,60.7,30.03,West,261,7.0,10.0,92,0.00,,,0.00,WeatherCatV1.14B232,2013-06-01 04:21:00,
2013-06-01 00:26:00,63.1,60.7,30.03,West,269,6.0,9.0,92,0.00,,,0.00,WeatherCatV1.14B232,2013-06-01 04:26:00,
2013-06-01 00:31:00,63.1,60.7,30.03,West,262,7.0,9.0,92,0.00,,,0.00,WeatherCatV1.14B232,2013-06-01 04:31:00,
2013-06-01 00:36:00,63.0,60.6,30.03,West,268,7.0,11.0,92,0.00,,,0.00,WeatherCatV1.14B232,2013-06-01 04:36:00,
2013-06-01 00:41:00,63.0,60.6,30.04,WSW,251,5.0,9.0,92,0.00,,,0.00,WeatherCatV1.14B232,2013-06-01 04:41:00,
2013-06-01 00:46:00,62.9,60.5,30.03,West,271,6.0,10.0,92,0.00,,,0.00,WeatherCatV1.14B232,2013-06-01 04:46:00,
2013-06-01 00:51:00,62.8,60.4,30.03,WSW,253,5.0,9.0,92,0.00,,,0.00,WeatherCatV1.14B232,2013-06-01 04:51:00,
2013-06-01 00:56:00,62.7,60.3,30.03,West,269,4.0,8.0,92,0.00,,,0.00,WeatherCatV1.14B232,2013-06-01 04:56:00,
2013-06-01 01:01:00,62.6,60.2,30.03,SW,221,9.0,9.0,92,0.00,,,0.00,WeatherCatV1.14B232,2013-06-01 05:01:00,
2013-06-01 01:06:00,62.6,60.5,30.03,WSW,246,8.0,9.0,93,0.00,,,0.00,WeatherCatV1.14B232,2013-06-01 05:06:00,
2013-06-01 01:11:00,62.5,60.4,30.03,West,279,7.0,9.0,93,0.00,,,0.00,WeatherCatV1.14B232,2013-06-01 05:11:00,
2013-06-01 01:16:00,62.5,60.4,30.03,WSW,255,8.0,10.0,93,0.00,,,0.00,WeatherCatV1.14B232,2013-06-01 05:16:00,
2013-06-01 01:21:00,62.4,60.3,30.03,West,272,6.0,9.0,93,0.00,,,0.00,WeatherCatV1.14B232,2013-06-01 05:21:00,
2013-06-01 01:26:00,62.3,60.2,30.03,West,259,7.0,10.0,93,0.00,,,0.00,WeatherCatV1.14B232,2013-06-01 05:26:00,
2013-06-01 01:31:00,62.4,60.3,30.02,West,268,7.0,9.0,93,0.00,,,0.00,WeatherCatV1.14B232,2013-06-01 05:31:00,
2013-06-01 01:36:00,62.3,60.2,30.02,West,279,6.0,9.0,93,0.00,,,0.00,WeatherCatV1.14B232,2013-06-01 05:36:00,
2013-06-01 01:41:00,62.2,60.1,30.02,West,263,7.0,9.0,93,0.00,,,0.00,WeatherCatV1.14B232,2013-06-01 05:41:00,
2013-06-01 01:46:00,62.2,60.1,30.02,West,259,7.0,9.0,93,0.00,,,0.00,WeatherCatV1.14B232,2013-06-01 05:46:00,
2013-06-01 01:51:00,62.2,60.1,30.02,WSW,255,8.0,10.0,93,0.00,,,0.00,WeatherCatV1.14B232,2013-06-01 05:51:00,
2013-06-01 01:56:00,62.3,60.2,30.02,WSW,248,6.0,10.0,93,0.00,,,0.00,WeatherCatV1.14B232,2013-06-01 05:56:00,
2013-06-01 02:01:00,62.2,60.1,30.02,WSW,248,9.0,10.0,93,0.00,,,0.00,WeatherCatV1.14B232,2013-06-01 06:01:00,
2013-06-01 02:06:00,62.2,60.1,30.02,West,266,7.0,10.0,93,0.00,,,0.00,WeatherCatV1.14B232,2013-06-01 06:06:00,
2013-06-01 02:11:00,62.0,59.9,30.02,WSW,250,11.0,12.0,93,0.00,,,0.00,WeatherCatV1.14B232,2013-06-01 06:11:00,
2013-06-01 02:16:00,62.0,59.9,30.02,West,271,10.0,11.0,93,0.00,,,0.00,WeatherCatV1.14B232,2013-06-01 06:16:00,
2013-06-01 02:21:00,62.0,59.9,30.02,West,261,7.0,10.0,93,0.00,,,0.00,WeatherCatV1.14B232,2013-06-01 06:21:00,
2013-06-01 02:26:00,62.0,59.9,30.02,West,260,9.0,13.0,93,0.00,,,0.00,WeatherCatV1.14B232,2013-06-01 06:26:00,
2013-06-01 02:31:00,62.0,59.9,30.02,WSW,251,8.0,12.0,93,0.00,,,0.00,WeatherCatV1.14B232,2013-06-01 06:31:00,
2013-06-01 02:36:00,62.0,59.9,30.02,WSW,250,9.0,13.0,93,0.00,,,0.00,WeatherCatV1.14B232,2013-06-01 06:36:00,
2013-06-01 02:41:00,62.0,59.9,30.02,West,265,7.0,11.0,93,0.00,,,0.00,WeatherCatV1.14B232,2013-06-01 06:41:00,
2013-06-01 02:46:00,62.0,59.9,30.02,West,263,5.0,9.0,93,0.00,,,0.00,WeatherCatV1.14B232,2013-06-01 06:46:00,
2013-06-01 02:51:00,61.9,59.8,30.02,WSW,250,8.0,8.0,93,0.00,,,0.00,WeatherCatV1.14B232,2013-06-01 06:51:00,
2013-06-01 02:56:00,61.9,59.8,30.01,West,273,7.0,9.0,93,0.00,,,0.00,WeatherCatV1.14B232,2013-06-01 06:56:00,
2013-06-01 03:01:00,62.0,59.9,30.01,West,265,9.0,9.0,93,0.00,,,0.00,WeatherCatV1.14B232,2013-06-01 07:01:00,
2013-06-01 03:06:00,61.9,59.8,30.01,West,259,9.0,10.0,93,0.00,,,0.00,WeatherCatV1.14B232,2013-06-01 07:06:00,
2013-06-01 03:11:00,61.9,59.8,30.01,West,265,7.0,10.0,93,0.00,,,0.00,WeatherCatV1.14B232,2013-06-01 07:11:00,
2013-06-01 03:16:00,61.8,59.8,30.01,SW,235,12.0,12.0,93,0.00,,,0.00,WeatherCatV1.14B232,2013-06-01 07:16:00,
2013-06-01 03:21:00,61.8,59.8,30.01,WSW,238,7.0,10.0,93,0.00,,,0.00,WeatherCatV1.14B232,2013-06-01 07:21:00,
2013-06-01 03:26:00,61.8,59.8,30.01,West,268,7.0,12.0,93,0.00,,,0.00,WeatherCatV1.14B232,2013-06-01 07:26:00,
2013-06-01 03:31:00,61.6,59.6,30.01,WSW,257,7.0,12.0,93,0.00,,,0.00,WeatherCatV1.14B232,2013-06-01 07:31:00,
2013-06-01 03:36:00,61.7,59.7,30.01,WSW,252,8.0,9.0,93,0.00,,,0.00,WeatherCatV1.14B232,2013-06-01 07:36:00,
2013-06-01 03:41:00,61.6,59.6,30.01,West,264,7.0,11.0,93,0.00,,,0.00,WeatherCatV1.14B232,2013-06-01 07:41:00,
2013-06-01 03:46:00,61.6,59.6,30.01,WSW,248,8.0,11.0,93,0.00,,,0.00,WeatherCatV1.14B232,2013-06-01 07:46:00,
2013-06-01 03:51:00,61.6,59.6,30.01,West,269,8.0,11.0,93,0.00,,,0.00,WeatherCatV1.14B232,2013-06-01 07:51:00,
2013-06-01 03:56:00,61.6,59.6,30.01,WSW,250,8.0,10.0,93,0.00,,,0.00,WeatherCatV1.14B232,2013-06-01 07:56:00,
2013-06-01 04:01:00,61.6,59.6,30.01,WSW,250,9.0,9.0,93,0.00,,,0.00,WeatherCatV1.14B232,2013-06-01 08:01:00,
2013-06-01 04:06:00,61.7,59.7,30.01,West,260,10.0,11.0,93,0.00,,,0.00,WeatherCatV1.14B232,2013-06-01 08:06:00,
2013-06-01 04:11:00,61.6,59.6,30.01,SW,227,6.0,9.0,93,0.00,,,0.00,WeatherCatV1.14B232,2013-06-01 08:11:00,
2013-06-01 04:16:00,61.6,59.6,30.02,West,262,7.0,8.0,93,0.00,,,0.00,WeatherCatV1.14B232,2013-06-01 08:16:00,
2013-06-01 04:21:00,61.4,59.4,30.02,West,267,7.0,9.0,93,0.00,,,0.00,WeatherCatV1.14B232,2013-06-01 08:21:00,
2013-06-01 04:26:00,61.4,59.7,30.01,West,264,7.0,10.0,94,0.00,,,0.00,WeatherCatV1.14B232,2013-06-01 08:26:00,
2013-06-01 04:31:00,61.4,59.7,30.01,SW,227,9.0,10.0,94,0.00,,,0.00,WeatherCatV1.14B232,2013-06-01 08:31:00,
2013-06-01 04:36:00,61.4,59.7,30.01,WSW,254,8.0,9.0,94,0.00,,,0.00,WeatherCatV1.14B232,2013-06-01 08:36:00,
2013-06-01 04:41:00,61.4,59.7,30.01,WSW,258,7.0,10.0,94,0.00,,,0.00,WeatherCatV1.14B232,2013-06-01 08:41:00,
2013-06-01 04:46:00,61.4,59.7,30.01,West,267,12.0,12.0,94,0.00,,,0.00,WeatherCatV1.14B232,2013-06-01 08:46:00,
2013-06-01 04:51:00,61.4,59.7,30.02,West,265,7.0,10.0,94,0.00,,,0.00,WeatherCatV1.14B232,2013-06-01 08:51:00,
2013-06-01 04:56:00,61.3,59.6,30.02,WSW,252,10.0,10.0,94,0.00,,,0.00,WeatherCatV1.14B232,2013-06-01 08:56:00,
2013-06-01 05:01:00,61.3,59.6,30.02,WSW,257,6.0,10.0,94,0.00,,,0.00,WeatherCatV1.14B232,2013-06-01 09:01:00,
2013-06-01 05:06:00,61.2,59.5,30.02,West,260,6.0,9.0,94,0.00,,,0.00,WeatherCatV1.14B232,2013-06-01 09:06:00,
2013-06-01 05:11:00,61.3,59.6,30.02,WSW,253,8.0,9.0,94,0.00,,,0.00,WeatherCatV1.14B232,2013-06-01 09:11:00,
2013-06-01 05:16:00,61.2,59.5,30.02,WNW,284,7.0,8.0,94,0.00,,,0.00,WeatherCatV1.14B232,2013-06-01 09:16:00,
2013-06-01 05:21:00,61.2,59.5,30.02,WSW,237,7.0,10.0,94,0.00,,,0.00,WeatherCatV1.14B232,2013-06-01 09:21:00,
2013-06-01 05:26:00,61.2,59.5,30.02,West,270,7.0,9.0,94,0.00,,,0.00,WeatherCatV1.14B232,2013-06-01 09:26:00,
2013-06-01 05:31:00,61.2,59.5,30.02,WSW,240,6.0,11.0,94,0.00,,,0.00,WeatherCatV1.14B232,2013-06-01 09:31:00,
2013-06-01 05:36:00,61.2,59.5,30.02,West,259,9.0,9.0,94,0.00,,,0.00,WeatherCatV1.14B232,2013-06-01 09:36:00,
2013-06-01 05:41:00,61.2,59.5,30.02,West,261,7.0,10.0,94,0.00,,,0.00,WeatherCatV1.14B232,2013-06-01 09:41:00,
2013-06-01 05:46:00,61.2,59.5,30.03,WSW,254,6.0,10.0,94,0.00,,,0.00,WeatherCatV1.14B232,2013-06-01 09:46:00,
2013-06-01 05:51:00,61.2,59.5,30.02,West,263,7.0,10.0,94,0.00,,,0.00,WeatherCatV1.14B232,2013-06-01 09:51:00,
2013-06-01 05:56:00,61.3,59.6,30.02,West,259,7.0,9.0,94,0.00,,,0.00,WeatherCatV1.14B232,2013-06-01 09:56:00,
2013-06-01 06:01:00,61.3,59.6,30.02,WSW,254,7.0,9.0,94,0.00,,,0.00,WeatherCatV1.14B232,2013-06-01 10:01:00,
2013-06-01 06:06:00,61.5,59.8,30.02,WSW,257,6.0,10.0,94,0.00,,,0.00,WeatherCatV1.14B232,2013-06-01 10:06:00,
2013-06-01 06:11:00,61.5,59.5,30.02,West,265,6.0,8.0,93,0.00,,,0.00,WeatherCatV1.14B232,2013-06-01 10:11:00,
2013-06-01 06:16:00,61.6,59.6,30.03,WSW,241,9.0,9.0,93,0.00,,,0.00,WeatherCatV1.14B232,2013-06-01 10:16:00,
2013-06-01 06:21:00,61.7,59.7,30.02,WSW,252,6.0,9.0,93,0.00,,,0.00,WeatherCatV1.14B232,2013-06-01 10:21:00,
2013-06-01 06:26:00,61.9,59.8,30.02,SW,232,4.0,9.0,93,0.00,,,0.00,WeatherCatV1.14B232,2013-06-01 10:26:00,
2013-06-01 06:31:00,62.1,60.0,30.02,West,263,5.0,9.0,93,0.00,,,0.00,WeatherCatV1.14B232,2013-06-01 10:31:00,
2013-06-01 06:36:00,62.2,60.1,30.03,WSW,248,8.0,9.0,93,0.00,,,0.00,WeatherCatV1.14B232,2013-06-01 10:36:00,
2013-06-01 06:41:00,62.3,60.2,30.03,West,262,6.0,9.0,93,0.00,,,0.00,WeatherCatV1.14B232,2013-06-01 10:41:00,
2013-06-01 06:46:00,62.4,60.3,30.02,West,261,5.0,9.0,93,0.00,,,0.00,WeatherCatV1.14B232,2013-06-01 10:46:00,
2013-06-01 06:51:00,62.5,60.4,30.03,West,265,7.0,10.0,93,0.00,,,0.00,WeatherCatV1.14B232,2013-06-01 10:51:00,
2013-06-01 06:56:00,62.6,60.5,30.03,WSW,246,8.0,9.0,93,0.00,,,0.00,WeatherCatV1.14B232,2013-06-01 10:56:00,
2013-06-01 07:01:00,62.7,60.3,30.02,West,265,7.0,10.0,92,0.00,,,0.00,WeatherCatV1.14B232,2013-06-01 11:01:00,
2013-06-01 07:06:00,62.7,60.3,30.02,WSW,247,12.0,12.0,92,0.00,,,0.00,WeatherCatV1.14B232,2013-06-01 11:06:00,
2013-06-01 07:11:00,62.7,60.3,30.03,WNW,283,7.0,11.0,92,0.00,,,0.00,WeatherCatV1.14B232,2013-06-01 11:11:00,
2013-06-01 07:16:00,62.7,60.3,30.02,West,264,9.0,11.0,92,0.00,,,0.00,WeatherCatV1.14B232,2013-06-01 11:16:00,
2013-06-01 07:21:00,62.8,60.4,30.03,West,276,10.0,10.0,92,0.00,,,0.00,WeatherCatV1.14B232,2013-06-01 11:21:00,
2013-06-01 07:26:00,62.8,60.4,30.02,WSW,257,8.0,11.0,92,0.00,,,0.00,WeatherCatV1.14B232,2013-06-01 11:26:00,
2013-06-01 07:31:00,62.8,60.4,30.02,WSW,240,6.0,10.0,92,0.00,,,0.00,WeatherCatV1.14B232,2013-06-01 11:31:00,
2013-06-01 07:36:00,63.1,60.7,30.02,West,262,9.0,10.0,92,0.00,,,0.00,WeatherCatV1.14B232,2013-06-01 11:36:00,
2013-06-01 07:41:00,63.3,60.9,30.02,West,264,9.0,10.0,92,0.00,,,0.00,WeatherCatV1.14B232,2013-06-01 11:41:00,
2013-06-01 07:46:00,63.2,60.8,30.03,WNW,300,7.0,10.0,92,0.00,,,0.00,WeatherCatV1.14B232,2013-06-01 11:46:00,
2013-06-01 07:51:00,63.2,60.5,30.02,West,259,7.0,11.0,91,0.00,,,0.00,WeatherCatV1.14B232,2013-06-01 11:51:00,
2013-06-01 07:56:00,63.2,60.5,30.03,WSW,253,10.0,13.0,91,0.00,,,0.00,WeatherCatV1.14B232,2013-06-01 11:56:00,
2013-06-01 08:01:00,63.2,60.5,30.03,WSW,239,10.0,12.0,91,0.00,,,0.00,WeatherCatV1.14B232,2013-06-01 12:01:00,
2013-06-01 08:06:00,63.2,60.8,30.03,West,262,11.0,13.0,92,0.00,,,0.00,WeatherCatV1.14B232,2013-06-01 12:06:00,
2013-06-01 08:11:00,63.2,60.8,30.03,WSW,244,11.0,11.0,92,0.00,,,0.00,WeatherCatV1.14B232,2013-06-01 12:11:00,
2013-06-01 08:16:00,63.2,60.5,30.03,WSW,257,12.0,13.0,91,0.00,,,0.00,WeatherCatV1.14B232,2013-06-01 12:16:00,
2013-06-01 08:21:00,63.4,60.7,30.03,West,259,9.0,12.0,91,0.00,,,0.00,WeatherCatV1.14B232,2013-06-01 12:21:00,
2013-06-01 08:26:00,63.5,60.8,30.03,West,263,12.0,13.0,91,0.00,,,0.00,WeatherCatV1.14B232,2013-06-01 12:26:00,
2013-06-01 08:31:00,63.6,60.9,30.03,West,263,9.0,12.0,91,0.00,,,0.00,WeatherCatV1.14B232,2013-06-01 12:31:00,
2013-06-01 08:36:00,63.8,61.1,30.03,West,261,11.0,13.0,91,0.00,,,0.00,WeatherCatV1.14B232,2013-06-01 12:36:00,
2013-06-01 08:41:00,63.9,61.2,30.03,West,263,10.0,12.0,91,0.00,,,0.00,WeatherCatV1.14B232,2013-06-01 12:41:00,
2013-06-01 08:46:00,63.9,61.2,30.03,West,267,7.0,12.0,91,0.00,,,0.00,WeatherCatV1.14B232,2013-06-01 12:46:00,
2013-06-01 08:51:00,64.1,61.4,30.03,WSW,254,11.0,12.0,91,0.00,,,0.00,WeatherCatV1.14B232,2013-06-01 12:51:00,
2013-06-01 08:55:00,64.2,61.5,30.03,West,261,9.0,11.0,91,0.00,,,0.00,WeatherCatV1.14B232,2013-06-01 12:55:00,
2013-06-01 08:56:00,64.2,61.5,30.03,West,263,12.0,12.0,91,0.00,,,0.00,WeatherCatV1.14B232,2013-06-01 12:56:00,
2013-06-01 09:00:00,64.1,61.1,30.03,West,261,10.0,11.0,90,0.00,,,0.00,WeatherCatV1.14B232,2013-06-01 13:00:00,
2013-06-01 09:05:00,64.2,61.5,30.03,West,270,9.0,13.0,91,0.00,,,0.00,WeatherCatV1.14B232,2013-06-01 13:05:00,
2013-06-01 09:10:00,64.2,61.5,30.03,West,270,9.0,13.0,91,0.00,,,0.00,WeatherCatV1.14B232,2013-06-01 13:10:00,
2013-06-01 09:15:00,64.2,61.5,30.03,West,270,9.0,13.0,91,0.00,,,0.00,WeatherCatV1.14B232,2013-06-01 13:15:00,
2013-06-01 09:20:00,64.2,61.5,30.03,West,270,9.0,13.0,91,0.00,,,0.00,WeatherCatV1.14B232,2013-06-01 13:20:00,
2013-06-01 09:25:00,64.2,61.5,30.03,West,270,9.0,13.0,91,0.00,,,0.00,WeatherCatV1.14B232,2013-06-01 13:25:00,
2013-06-01 09:30:00,64.2,61.5,30.03,West,270,9.0,13.0,91,0.00,,,0.00,WeatherCatV1.14B232,2013-06-01 13:30:00,
2013-06-01 09:35:00,64.2,61.5,30.03,West,270,9.0,13.0,91,0.00,,,0.00,WeatherCatV1.14B232,2013-06-01 13:35:00,
2013-06-01 09:40:00,64.5,61.5,30.03,West,270,10.0,17.0,90,0.00,,,0.00,WeatherCatV1.14B232,2013-06-01 13:40:00,
2013-06-01 09:45:00,64.5,61.5,30.03,West,270,10.0,17.0,90,0.00,,,0.00,WeatherCatV1.14B232,2013-06-01 13:45:00,
2013-06-01 09:50:00,64.5,61.5,30.03,West,270,10.0,17.0,90,0.00,,,0.00,WeatherCatV1.14B232,2013-06-01 13:50:00,
2013-06-01 09:55:00,64.5,61.5,30.03,West,270,10.0,17.0,90,0.00,,,0.00,WeatherCatV1.14B232,2013-06-01 13:55:00,
2013-06-01 10:00:00,64.5,61.5,30.03,West,270,10.0,17.0,90,0.00,,,0.00,WeatherCatV1.14B232,2013-06-01 14:00:00,
2013-06-01 10:05:00,65.0,61.7,30.03,West,270,11.0,16.0,89,0.00,,,0.00,WeatherCatV1.14B232,2013-06-01 14:05:00,
2013-06-01 10:10:00,65.0,61.7,30.03,West,270,11.0,16.0,89,0.00,,,0.00,WeatherCatV1.14B232,2013-06-01 14:10:00,
2013-06-01 10:15:00,65.0,61.7,30.03,West,270,11.0,16.0,89,0.00,,,0.00,WeatherCatV1.14B232,2013-06-01 14:15:00,
2013-06-01 10:20:00,65.0,61.7,30.03,West,270,11.0,16.0,89,0.00,,,0.00,WeatherCatV1.14B232,2013-06-01 14:20:00,
2013-06-01 10:25:00,65.0,61.7,30.03,West,270,11.0,16.0,89,0.00,,,0.00,WeatherCatV1.14B232,2013-06-01 14:25:00,
2013-06-01 10:30:00,65.0,61.7,30.03,West,270,11.0,16.0,89,0.00,,,0.00,WeatherCatV1.14B232,2013-06-01 14:30:00,
2013-06-01 10:35:00,65.5,62.2,30.03,WSW,248,12.0,17.0,89,0.00,,,0.00,WeatherCatV1.14B232,2013-06-01 14:35:00,
2013-06-01 10:40:00,65.5,62.2,30.03,WSW,248,12.0,17.0,89,0.00,,,0.00,WeatherCatV1.14B232,2013-06-01 14:40:00,
2013-06-01 10:45:00,65.5,62.2,30.03,WSW,248,12.0,17.0,89,0.00,,,0.00,WeatherCatV1.14B232,2013-06-01 14:45:00,
2013-06-01 10:50:00,65.5,62.2,30.03,WSW,248,12.0,17.0,89,0.00,,,0.00,WeatherCatV1.14B232,2013-06-01 14:50:00,
2013-06-01 10:55:00,65.5,62.2,30.03,WSW,248,12.0,17.0,89,0.00,,,0.00,WeatherCatV1.14B232,2013-06-01 14:55:00,
2013-06-01 11:00:00,65.5,62.2,30.03,WSW,248,12.0,17.0,89,0.00,,,0.00,WeatherCatV1.14B232,2013-06-01 15:00:00,
2013-06-01 11:05:00,65.5,62.2,30.03,WSW,248,12.0,17.0,89,0.00,,,0.00,WeatherCatV1.14B232,2013-06-01 15:05:00,
2013-06-01 11:10:00,65.9,62.6,30.03,West,270,10.0,14.0,89,0.00,,,0.00,WeatherCatV1.14B232,2013-06-01 15:10:00,
2013-06-01 11:15:00,65.9,62.6,30.03,West,270,10.0,14.0,89,0.00,,,0.00,WeatherCatV1.14B232,2013-06-01 15:15:00,
2013-06-01 11:20:00,65.9,62.6,30.03,West,270,10.0,14.0,89,0.00,,,0.00,WeatherCatV1.14B232,2013-06-01 15:20:00,
2013-06-01 11:25:00,65.9,62.6,30.03,West,270,10.0,14.0,89,0.00,,,0.00,WeatherCatV1.14B232,2013-06-01 15:25:00,
2013-06-01 11:30:00,65.9,62.6,30.03,West,270,10.0,14.0,89,0.00,,,0.00,WeatherCatV1.14B232,2013-06-01 15:30:00,
2013-06-01 11:35:00,65.9,62.6,30.03,West,270,10.0,14.0,89,0.00,,,0.00,WeatherCatV1.14B232,2013-06-01 15:35:00,
2013-06-01 11:40:00,66.5,62.8,30.03,WSW,248,11.0,17.0,88,0.00,,,0.00,WeatherCatV1.14B232,2013-06-01 15:40:00,
2013-06-01 11:45:00,66.5,62.8,30.03,WSW,248,11.0,17.0,88,0.00,,,0.00,WeatherCatV1.14B232,2013-06-01 15:45:00,
2013-06-01 11:50:00,66.5,62.8,30.03,WSW,248,11.0,17.0,88,0.00,,,0.00,WeatherCatV1.14B232,2013-06-01 15:50:00,
2013-06-01 11:55:00,66.5,62.8,30.03,WSW,248,11.0,17.0,88,0.00,,,0.00,WeatherCatV1.14B232,2013-06-01 15:55:00,
2013-06-01 12:00:00,66.5,62.8,30.03,WSW,248,11.0,17.0,88,0.00,,,0.00,WeatherCatV1.14B232,2013-06-01 16:00:00,
2013-06-01 12:05:00,66.9,63.2,30.03,West,270,12.0,17.0,88,0.00,,,0.00,WeatherCatV1.14B232,2013-06-01 16:05:00,
2013-06-01 12:10:00,66.9,63.2,30.03,West,270,12.0,17.0,88,0.00,,,0.00,WeatherCatV1.14B232,2013-06-01 16:10:00,
2013-06-01 12:15:00,66.9,63.2,30.03,West,270,12.0,17.0,88,0.00,,,0.00,WeatherCatV1.14B232,2013-06-01 16:15:00,
2013-06-01 12:20:00,66.9,63.2,30.03,West,270,12.0,17.0,88,0.00,,,0.00,WeatherCatV1.14B232,2013-06-01 16:20:00,
2013-06-01 12:25:00,66.9,63.2,30.03,West,270,12.0,17.0,88,0.00,,,0.00,WeatherCatV1.14B232,2013-06-01 16:25:00,
2013-06-01 12:30:00,66.9,63.2,30.03,West,270,12.0,17.0,88,0.00,,,0.00,WeatherCatV1.14B232,2013-06-01 16:30:00,
2013-06-01 12:35:00,67.3,63.6,30.02,West,270,12.0,16.0,88,0.00,,,0.00,WeatherCatV1.14B232,2013-06-01 16:35:00,
2013-06-01 12:40:00,67.3,63.6,30.02,West,270,12.0,16.0,88,0.00,,,0.00,WeatherCatV1.14B232,2013-06-01 16:40:00,
2013-06-01 12:45:00,67.3,63.6,30.02,West,270,12.0,16.0,88,0.00,,,0.00,WeatherCatV1.14B232,2013-06-01 16:45:00,
2013-06-01 12:50:00,67.3,63.6,30.02,West,270,12.0,16.0,88,0.00,,,0.00,WeatherCatV1.14B232,2013-06-01 16:50:00,
2013-06-01 12:55:00,67.3,63.6,30.02,West,270,12.0,16.0,88,0.00,,,0.00,WeatherCatV1.14B232,2013-06-01 16:55:00,
2013-06-01 13:00:00,67.3,63.6,30.02,West,270,12.0,16.0,88,0.00,,,0.00,WeatherCatV1.14B232,2013-06-01 17:00:00,
2013-06-01 13:05:00,67.3,63.6,30.02,West,270,12.0,16.0,88,0.00,,,0.00,WeatherCatV1.14B232,2013-06-01 17:05:00,
2013-06-01 13:10:00,67.6,63.6,30.01,West,270,11.0,16.0,87,0.00,,,0.00,WeatherCatV1.14B232,2013-06-01 17:10:00,
2013-06-01 13:15:00,67.6,63.6,30.01,West,270,11.0,16.0,87,0.00,,,0.00,WeatherCatV1.14B232,2013-06-01 17:15:00,
2013-06-01 13:20:00,67.6,63.6,30.01,West,270,11.0,16.0,87,0.00,,,0.00,WeatherCatV1.14B232,2013-06-01 17:20:00,
2013-06-01 13:25:00,67.6,63.6,30.01,West,270,11.0,16.0,87,0.00,,,0.00,WeatherCatV1.14B232,2013-06-01 17:25:00,
2013-06-01 13:30:00,67.6,63.6,30.01,West,270,11.0,16.0,87,0.00,,,0.00,WeatherCatV1.14B232,2013-06-01 17:30:00,
2013-06-01 13:35:00,67.9,63.9,30.00,West,270,13.0,18.0,87,0.00,,,0.00,WeatherCatV1.14B232,2013-06-01 17:35:00,
2013-06-01 13:40:00,67.9,63.9,30.00,West,270,13.0,18.0,87,0.00,,,0.00,WeatherCatV1.14B232,2013-06-01 17:40:00,
2013-06-01 13:45:00,67.9,63.9,30.00,West,270,13.0,18.0,87,0.00,,,0.00,WeatherCatV1.14B232,2013-06-01 17:45:00,
2013-06-01 13:50:00,67.9,63.9,30.00,West,270,13.0,18.0,87,0.00,,,0.00,WeatherCatV1.14B232,2013-06-01 17:50:00,
2013-06-01 13:55:00,67.9,63.9,30.00,West,270,13.0,18.0,87,0.00,,,0.00,WeatherCatV1.14B232,2013-06-01 17:55:00,
2013-06-01 14:00:00,67.9,63.9,30.00,West,270,13.0,18.0,87,0.00,,,0.00,WeatherCatV1.14B232,2013-06-01 18:00:00,
2013-06-01 14:05:00,67.7,63.7,30.00,West,270,12.0,17.0,87,0.00,,,0.00,WeatherCatV1.14B232,2013-06-01 18:05:00,
2013-06-01 14:10:00,67.7,63.7,30.00,West,270,12.0,17.0,87,0.00,,,0.00,WeatherCatV1.14B232,2013-06-01 18:10:00,
2013-06-01 14:15:00,67.7,63.7,30.00,West,270,12.0,17.0,87,0.00,,,0.00,WeatherCatV1.14B232,2013-06-01 18:15:00,
2013-06-01 14:20:00,67.7,63.7,30.00,West,270,12.0,17.0,87,0.00,,,0.00,WeatherCatV1.14B232,2013-06-01 18:20:00,
2013-06-01 14:25:00,67.7,63.7,30.00,West,270,12.0,17.0,87,0.00,,,0.00,WeatherCatV1.14B232,2013-06-01 18:25:00,
2013-06-01 14:30:00,67.7,63.7,30.00,West,270,12.0,17.0,87,0.00,,,0.00,WeatherCatV1.14B232,2013-06-01 18:30:00,
2013-06-01 14:35:00,67.7,63.7,30.00,West,270,12.0,17.0,87,0.00,,,0.00,WeatherCatV1.14B232,2013-06-01 18:35:00,
2013-06-01 14:40:00,67.3,63.6,30.00,West,270,14.0,20.0,88,0.00,,,0.00,WeatherCatV1.14B232,2013-06-01 18:40:00,
2013-06-01 14:45:00,67.3,63.6,30.00,West,270,14.0,20.0,88,0.00,,,0.00,WeatherCatV1.14B232,2013-06-01 18:45:00,
2013-06-01 14:50:00,67.3,63.6,30.00,West,270,14.0,20.0,88,0.00,,,0.00,WeatherCatV1.14B232,2013-06-01 18:50:00,
2013-06-01 14:55:00,67.3,63.6,30.00,West,270,14.0,20.0,88,0.00,,,0.00,WeatherCatV1.14B232,2013-06-01 18:55:00,
2013-06-01 15:00:00,67.3,63.6,30.00,West,270,14.0,20.0,88,0.00,,,0.00,WeatherCatV1.14B232,2013-06-01 19:00:00,
2013-06-01 15:05:00,67.3,63.6,30.00,West,270,14.0,20.0,88,0.00,,,0.00,WeatherCatV1.14B232,2013-06-01 19:05:00,
2013-06-01 15:10:00,67.1,63.4,29.99,West,270,13.0,21.0,88,0.00,,,0.00,WeatherCatV1.14B232,2013-06-01 19:10:00,
2013-06-01 15:15:00,67.1,63.4,29.99,West,270,13.0,21.0,88,0.00,,,0.00,WeatherCatV1.14B232,2013-06-01 19:15:00,
2013-06-01 15:20:00,67.1,63.4,29.99,West,270,13.0,21.0,88,0.00,,,0.00,WeatherCatV1.14B232,2013-06-01 19:20:00,
2013-06-01 15:25:00,67.1,63.4,29.99,West,270,13.0,21.0,88,0.00,,,0.00,WeatherCatV1.14B232,2013-06-01 19:25:00,
2013-06-01 15:30:00,67.1,63.4,29.99,West,270,13.0,21.0,88,0.00,,,0.00,WeatherCatV1.14B232,2013-06-01 19:30:00,
2013-06-01 15:35:00,66.5,62.8,29.98,West,270,14.0,21.0,88,0.00,,,0.00,WeatherCatV1.14B232,2013-06-01 19:35:00,
2013-06-01 15:40:00,66.5,62.8,29.98,West,270,14.0,21.0,88,0.00,,,0.00,WeatherCatV1.14B232,2013-06-01 19:40:00,
2013-06-01 15:45:00,66.5,62.8,29.98,West,270,14.0,21.0,88,0.00,,,0.00,WeatherCatV1.14B232,2013-06-01 19:45:00,
2013-06-01 15:50:00,66.5,62.8,29.98,West,270,14.0,21.0,88,0.00,,,0.00,WeatherCatV1.14B232,2013-06-01 19:50:00,
2013-06-01 15:55:00,66.5,62.8,29.98,West,270,14.0,21.0,88,0.00,,,0.00,WeatherCatV1.14B232,2013-06-01 19:55:00,
2013-06-01 16:00:00,66.5,62.8,29.98,West,270,14.0,21.0,88,0.00,,,0.00,WeatherCatV1.14B232,2013-06-01 20:00:00,
2013-06-01 16:05:00,66.5,62.8,29.98,West,270,14.0,21.0,88,0.00,,,0.00,WeatherCatV1.14B232,2013-06-01 20:05:00,
2013-06-01 16:10:00,66.4,63.0,29.97,West,270,14.0,21.0,89,0.00,,,0.00,WeatherCatV1.14B232,2013-06-01 20:10:00,
2013-06-01 16:15:00,66.4,63.0,29.97,West,270,14.0,21.0,89,0.00,,,0.00,WeatherCatV1.14B232,2013-06-01 20:15:00,
2013-06-01 16:20:00,66.4,63.0,29.97,West,270,14.0,21.0,89,0.00,,,0.00,WeatherCatV1.14B232,2013-06-01 20:20:00,
2013-06-01 16:25:00,66.4,63.0,29.97,West,270,14.0,21.0,89,0.00,,,0.00,WeatherCatV1.14B232,2013-06-01 20:25:00,
2013-06-01 16:30:00,66.4,63.0,29.97,West,270,14.0,21.0,89,0.00,,,0.00,WeatherCatV1.14B232,2013-06-01 20:30:00,
2013-06-01 16:35:00,66.4,63.0,29.97,West,270,14.0,21.0,89,0.00,,,0.00,WeatherCatV1.14B232,2013-06-01 20:35:00,
2013-06-01 16:40:00,66.2,63.2,29.98,West,270,15.0,21.0,90,0.00,,,0.00,WeatherCatV1.14B232,2013-06-01 20:40:00,
2013-06-01 16:45:00,66.2,63.2,29.98,West,270,15.0,21.0,90,0.00,,,0.00,WeatherCatV1.14B232,2013-06-01 20:45:00,
2013-06-01 16:50:00,66.2,63.2,29.98,West,270,15.0,21.0,90,0.00,,,0.00,WeatherCatV1.14B232,2013-06-01 20:50:00,
2013-06-01 16:55:00,66.2,63.2,29.98,West,270,15.0,21.0,90,0.00,,,0.00,WeatherCatV1.14B232,2013-06-01 20:55:00,
2013-06-01 17:00:00,66.2,63.2,29.98,West,270,15.0,21.0,90,0.00,,,0.00,WeatherCatV1.14B232,2013-06-01 21:00:00,
2013-06-01 17:05:00,65.7,62.7,29.98,West,270,14.0,20.0,90,0.00,,,0.00,WeatherCatV1.14B232,2013-06-01 21:05:00,
2013-06-01 17:10:00,65.7,62.7,29.98,West,270,14.0,20.0,90,0.00,,,0.00,WeatherCatV1.14B232,2013-06-01 21:10:00,
2013-06-01 17:15:00,65.7,62.7,29.98,West,270,14.0,20.0,90,0.00,,,0.00,WeatherCatV1.14B232,2013-06-01 21:15:00,
2013-06-01 17:20:00,65.7,62.7,29.98,West,270,14.0,20.0,90,0.00,,,0.00,WeatherCatV1.14B232,2013-06-01 21:20:00,
2013-06-01 17:25:00,65.7,62.7,29.98,West,270,14.0,20.0,90,0.00,,,0.00,WeatherCatV1.14B232,2013-06-01 21:25:00,
2013-06-01 17:30:00,65.7,62.7,29.98,West,270,14.0,20.0,90,0.00,,,0.00,WeatherCatV1.14B232,2013-06-01 21:30:00,
2013-06-01 17:35:00,65.7,62.7,29.98,West,270,14.0,19.0,90,0.00,,,0.00,WeatherCatV1.14B232,2013-06-01 21:35:00,
2013-06-01 17:40:00,65.7,62.7,29.98,West,270,14.0,19.0,90,0.00,,,0.00,WeatherCatV1.14B232,2013-06-01 21:40:00,
2013-06-01 17:45:00,65.7,62.7,29.98,West,270,14.0,19.0,90,0.00,,,0.00,WeatherCatV1.14B232,2013-06-01 21:45:00,
2013-06-01 17:50:00,65.7,62.7,29.98,West,270,14.0,19.0,90,0.00,,,0.00,WeatherCatV1.14B232,2013-06-01 21:50:00,
2013-06-01 17:55:00,65.7,62.7,29.98,West,270,14.0,19.0,90,0.00,,,0.00,WeatherCatV1.14B232,2013-06-01 21:55:00,
2013-06-01 18:00:00,65.7,62.7,29.98,West,270,14.0,19.0,90,0.00,,,0.00,WeatherCatV1.14B232,2013-06-01 22:00:00,
2013-06-01 18:05:00,65.7,62.7,29.98,West,270,14.0,19.0,90,0.00,,,0.00,WeatherCatV1.14B232,2013-06-01 22:05:00,
2013-06-01 18:10:00,65.0,62.3,29.98,West,270,14.0,20.0,91,0.00,,,0.00,WeatherCatV1.14B232,2013-06-01 22:10:00,
2013-06-01 18:15:00,65.0,62.3,29.98,West,270,14.0,20.0,91,0.00,,,0.00,WeatherCatV1.14B232,2013-06-01 22:15:00,
2013-06-01 18:20:00,65.0,62.3,29.98,West,270,14.0,20.0,91,0.00,,,0.00,WeatherCatV1.14B232,2013-06-01 22:20:00,
2013-06-01 18:25:00,65.0,62.3,29.98,West,270,14.0,20.0,91,0.00,,,0.00,WeatherCatV1.14B232,2013-06-01 22:25:00,
2013-06-01 18:30:00,65.0,62.3,29.98,West,270,14.0,20.0,91,0.00,,,0.00,WeatherCatV1.14B232,2013-06-01 22:30:00,
2013-06-01 18:35:00,65.0,62.3,29.98,West,270,14.0,20.0,91,0.00,,,0.00,WeatherCatV1.14B232,2013-06-01 22:35:00,
2013-06-01 18:40:00,64.5,62.1,29.97,West,270,13.0,18.0,92,0.00,,,0.00,WeatherCatV1.14B232,2013-06-01 22:40:00,
2013-06-01 18:45:00,64.5,62.1,29.97,West,270,13.0,18.0,92,0.00,,,0.00,WeatherCatV1.14B232,2013-06-01 22:45:00,
2013-06-01 18:50:00,64.5,62.1,29.97,West,270,13.0,18.0,92,0.00,,,0.00,WeatherCatV1.14B232,2013-06-01 22:50:00,
2013-06-01 18:55:00,64.5,62.1,29.97,West,270,13.0,18.0,92,0.00,,,0.00,WeatherCatV1.14B232,2013-06-01 22:55:00,
2013-06-01 19:00:00,64.5,62.1,29.97,West,270,13.0,18.0,92,0.00,,,0.00,WeatherCatV1.14B232,2013-06-01 23:00:00,
2013-06-01 19:05:00,64.1,62.0,29.97,West,270,12.0,16.0,93,0.00,,,0.00,WeatherCatV1.14B232,2013-06-01 23:05:00,
2013-06-01 19:10:00,64.1,62.0,29.97,West,270,12.0,16.0,93,0.00,,,0.00,WeatherCatV1.14B232,2013-06-01 23:10:00,
2013-06-01 19:15:00,64.1,62.0,29.97,West,270,12.0,16.0,93,0.00,,,0.00,WeatherCatV1.14B232,2013-06-01 23:15:00,
2013-06-01 19:20:00,64.1,62.0,29.97,West,270,12.0,16.0,93,0.00,,,0.00,WeatherCatV1.14B232,2013-06-01 23:20:00,
2013-06-01 19:25:00,64.1,62.0,29.97,West,270,12.0,16.0,93,0.00,,,0.00,WeatherCatV1.14B232,2013-06-01 23:25:00,
2013-06-01 19:30:00,64.1,62.0,29.97,West,270,12.0,16.0,93,0.00,,,0.00,WeatherCatV1.14B232,2013-06-01 23:30:00,
2013-06-01 19:35:00,64.1,62.0,29.97,West,270,12.0,16.0,93,0.00,,,0.00,WeatherCatV1.14B232,2013-06-01 23:35:00,
2013-06-01 19:40:00,64.0,61.9,29.97,WSW,248,13.0,18.0,93,0.00,,,0.00,WeatherCatV1.14B232,2013-06-01 23:40:00,
2013-06-01 19:45:00,64.0,61.9,29.97,WSW,248,13.0,18.0,93,0.00,,,0.00,WeatherCatV1.14B232,2013-06-01 23:45:00,
2013-06-01 19:50:00,64.0,61.9,29.97,WSW,248,13.0,18.0,93,0.00,,,0.00,WeatherCatV1.14B232,2013-06-01 23:50:00,
2013-06-01 19:55:00,64.0,61.9,29.97,WSW,248,13.0,18.0,93,0.00,,,0.00,WeatherCatV1.14B232,2013-06-01 23:55:00,
2013-06-01 20:00:00,64.0,61.9,29.97,WSW,248,13.0,18.0,93,0.00,,,0.00,WeatherCatV1.14B232,2013-06-02 00:00:00,
2013-06-01 20:05:00,64.0,61.9,29.97,WSW,248,13.0,18.0,93,0.00,,,0.00,WeatherCatV1.14B232,2013-06-02 00:05:00,
2013-06-01 20:10:00,63.5,61.7,29.98,West,270,13.0,18.0,94,0.00,,,0.00,WeatherCatV1.14B232,2013-06-02 00:10:00,
2013-06-01 20:15:00,63.5,61.7,29.98,West,270,13.0,18.0,94,0.00,,,0.00,WeatherCatV1.14B232,2013-06-02 00:15:00,
2013-06-01 20:20:00,63.5,61.7,29.98,West,270,13.0,18.0,94,0.00,,,0.00,WeatherCatV1.14B232,2013-06-02 00:20:00,
2013-06-01 20:25:00,63.5,61.7,29.98,West,270,13.0,18.0,94,0.00,,,0.00,WeatherCatV1.14B232,2013-06-02 00:25:00,
2013-06-01 20:30:00,63.5,61.7,29.98,West,270,13.0,18.0,94,0.00,,,0.00,WeatherCatV1.14B232,2013-06-02 00:30:00,
2013-06-01 20:35:00,63.2,61.4,29.98,West,270,13.0,18.0,94,0.00,,,0.00,WeatherCatV1.14B232,2013-06-02 00:35:00,
2013-06-01 20:40:00,63.2,61.4,29.98,West,270,13.0,18.0,94,0.00,,,0.00,WeatherCatV1.14B232,2013-06-02 00:40:00,
2013-06-01 20:45:00,63.2,61.4,29.98,West,270,13.0,18.0,94,0.00,,,0.00,WeatherCatV1.14B232,2013-06-02 00:45:00,
2013-06-01 20:50:00,63.2,61.4,29.98,West,270,13.0,18.0,94,0.00,,,0.00,WeatherCatV1.14B232,2013-06-02 00:50:00,
2013-06-01 20:55:00,63.2,61.4,29.98,West,270,13.0,18.0,94,0.00,,,0.00,WeatherCatV1.14B232,2013-06-02 00:55:00,
2013-06-01 21:00:00,63.2,61.4,29.98,West,270,13.0,18.0,94,0.00,,,0.00,WeatherCatV1.14B232,2013-06-02 01:00:00,
2013-06-01 21:05:00,63.2,61.4,29.98,West,270,13.0,18.0,94,0.00,,,0.00,WeatherCatV1.14B232,2013-06-02 01:05:00,
2013-06-01 21:10:00,63.1,61.6,29.98,West,270,14.0,20.0,95,0.00,,,0.00,WeatherCatV1.14B232,2013-06-02 01:10:00,
2013-06-01 21:15:00,63.1,61.6,29.98,West,270,14.0,20.0,95,0.00,,,0.00,WeatherCatV1.14B232,2013-06-02 01:15:00,
2013-06-01 21:20:00,63.1,61.6,29.98,West,270,14.0,20.0,95,0.00,,,0.00,WeatherCatV1.14B232,2013-06-02 01:20:00,
2013-06-01 21:25:00,63.1,61.6,29.98,West,270,14.0,20.0,95,0.00,,,0.00,WeatherCatV1.14B232,2013-06-02 01:25:00,
2013-06-01 21:30:00,63.1,61.6,29.98,West,270,14.0,20.0,95,0.00,,,0.00,WeatherCatV1.14B232,2013-06-02 01:30:00,
2013-06-01 21:35:00,63.1,61.6,29.98,West,270,14.0,20.0,95,0.00,,,0.00,WeatherCatV1.14B232,2013-06-02 01:35:00,
2013-06-01 21:40:00,63.2,61.7,29.99,West,270,14.0,19.0,95,0.00,,,0.00,WeatherCatV1.14B232,2013-06-02 01:40:00,
2013-06-01 21:45:00,63.2,61.7,29.99,West,270,14.0,19.0,95,0.00,,,0.00,WeatherCatV1.14B232,2013-06-02 01:45:00,
2013-06-01 21:50:00,63.2,61.7,29.99,West,270,14.0,19.0,95,0.00,,,0.00,WeatherCatV1.14B232,2013-06-02 01:50:00,
2013-06-01 21:55:00,63.2,61.7,29.99,West,270,14.0,19.0,95,0.00,,,0.00,WeatherCatV1.14B232,2013-06-02 01:55:00,
2013-06-01 22:00:00,63.2,61.7,29.99,West,270,14.0,19.0,95,0.00,,,0.00,WeatherCatV1.14B232,2013-06-02 02:00:00,
2013-06-01 22:05:00,63.2,61.7,29.99,West,270,14.0,19.0,95,0.00,,,0.00,WeatherCatV1.14B232,2013-06-02 02:05:00,
2013-06-01 22:10:00,63.0,61.5,29.99,West,270,12.0,18.0,95,0.00,,,0.00,WeatherCatV1.14B232,2013-06-02 02:10:00,
2013-06-01 22:15:00,63.0,61.5,29.99,West,270,12.0,18.0,95,0.00,,,0.00,WeatherCatV1.14B232,2013-06-02 02:15:00,
2013-06-01 22:20:00,63.0,61.5,29.99,West,270,12.0,18.0,95,0.00,,,0.00,WeatherCatV1.14B232,2013-06-02 02:20:00,
2013-06-01 22:25:00,63.0,61.5,29.99,West,270,12.0,18.0,95,0.00,,,0.00,WeatherCatV1.14B232,2013-06-02 02:25:00,
2013-06-01 22:30:00,63.0,61.5,29.99,West,270,12.0,18.0,95,0.00,,,0.00,WeatherCatV1.14B232,2013-06-02 02:30:00,
2013-06-01 22:35:00,63.0,61.5,29.99,West,270,12.0,18.0,95,0.00,,,0.00,WeatherCatV1.14B232,2013-06-02 02:35:00,
2013-06-01 22:40:00,62.8,61.3,29.98,West,270,13.0,17.0,95,0.00,,,0.00,WeatherCatV1.14B232,2013-06-02 02:40:00,
2013-06-01 22:45:00,62.8,61.3,29.98,West,270,13.0,17.0,95,0.00,,,0.00,WeatherCatV1.14B232,2013-06-02 02:45:00,
2013-06-01 22:50:00,62.8,61.3,29.98,West,270,13.0,17.0,95,0.00,,,0.00,WeatherCatV1.14B232,2013-06-02 02:50:00,
2013-06-01 22:55:00,62.8,61.3,29.98,West,270,13.0,17.0,95,0.00,,,0.00,WeatherCatV1.14B232,2013-06-02 02:55:00,
2013-06-01 23:00:00,62.8,61.3,29.98,West,270,13.0,17.0,95,0.00,,,0.00,WeatherCatV1.14B232,2013-06-02 03:00:00,
2013-06-01 23:05:00,62.8,61.3,29.98,West,270,13.0,17.0,95,0.00,,,0.00,WeatherCatV1.14B232,2013-06-02 03:05:00,
2013-06-01 23:10:00,63.0,61.8,29.98,West,270,13.0,18.0,96,0.00,,,0.00,WeatherCatV1.14B232,2013-06-02 03:10:00,
2013-06-01 23:15:00,63.0,61.8,29.98,West,270,13.0,18.0,96,0.00,,,0.00,WeatherCatV1.14B232,2013-06-02 03:15:00,
2013-06-01 23:20:00,63.0,61.8,29.98,West,270,13.0,18.0,96,0.00,,,0.00,WeatherCatV1.14B232,2013-06-02 03:20:00,
2013-06-01 23:25:00,63.0,61.8,29.98,West,270,13.0,18.0,96,0.00,,,0.00,WeatherCatV1.14B232,2013-06-02 03:25:00,
2013-06-01 23:30:00,63.0,61.8,29.98,West,270,13.0,18.0,96,0.00,,,0.00,WeatherCatV1.14B232,2013-06-02 03:30:00,
2013-06-01 23:35:00,62.9,61.4,29.99,West,270,12.0,17.0,95,0.00,,,0.00,WeatherCatV1.14B232,2013-06-02 03:35:00,
2013-06-01 23:40:00,62.9,61.4,29.99,West,270,12.0,17.0,95,0.00,,,0.00,WeatherCatV1.14B232,2013-06-02 03:40:00,
2013-06-01 23:45:00,62.9,61.4,29.99,West,270,12.0,17.0,95,0.00,,,0.00,WeatherCatV1.14B232,2013-06-02 03:45:00,
2013-06-01 23:50:00,62.9,61.4,29.99,West,270,12.0,17.0,95,0.00,,,0.00,WeatherCatV1.14B232,2013-06-02 03:50:00,
2013-06-01 23:55:00,62.9,61.4,29.99,West,270,12.0,17.0,95,0.00,,,0.00,WeatherCatV1.14B232,2013-06-02 03:55:00,